Airfield :
LOGIN :

Register | Disclaimer

   EN    FR    IT 

 










Legend :    VFR   Marginal VFR   IFR   Intensive IFR   Very Intensive IFR
Visi :
Ceiling :
>= 8 km
>= 3000ft
5 to 8 km
1000 to 3000 ft
1500m to 5 km
500 to 1000 ft
800 to 1500m
200 to 500 ft
< 800m
< 200 ft
Symbols :   Thunderstorms  Fog  Heavy snow  Heavy precipitations  Wind > 20 kt
SIGMETs :     Misc.  Thunderstorms  Icing  Turbulence  Mountain Waves  Volcanic Ashes







- Airport Elevation : 37 ft


EHVL - Vlieland Heliport

CURRENT METAR :
  • 130536Z AUTO 10019KT 9999 OVC023 03/00 Q1023 WHT

EXPIRED METARs :
  • 130525Z AUTO 10016KT 9999 OVC023 03/00 Q1023 WHT
  • 130455Z AUTO 09014KT 9999 BKN021 02/00 Q1024 WHT
  • 130442Z AUTO 09014KT 9999 FEW018 SCT028 02/00 Q1024 BLU
  • 130425Z AUTO 09014KT 9999 OVC023 03/01 Q1024 WHT
  • 130355Z AUTO 10015KT 9999 OVC019 03/00 Q1024 WHT
  • 130325Z AUTO 10014KT 9999 BKN022 02/01 Q1024 WHT
  • 130309Z AUTO 10013KT 9999 OVC024 02/01 Q1024 WHT
  • 130255Z AUTO 10013KT 9999 OVC025 02/01 Q1024 BLU

Expired Forecast.
No reported NOTAMs for that airfield.



MET'MAP, your aeronautical weather chart ! - Copyright ORBIFLY December 2007 - Disclaimer

ORBIFLY MET'MAP TEAM :

Programming & Development : Alexandra Zaïnal
Concept & Development : Baudouin d'Aumeries
Co-Development & Prog : Marc-Olivier Méhu
Technical & hardware support : Manuel Goepfert

Contact : metmap@orbifly.com




SOURCES & CREDITS :

   NOAA